sensor_id;sensor_type;location;lat;lon;timestamp;pressure;altitude;pressure_sealevel;temperature;humidity
23303;BME280;11820;48.738;9.092;2022-08-20T00:00:01;96237.41;;;21.09;100.00
23303;BME280;11820;48.738;9.092;2022-08-20T00:02:26;96242.66;;;21.09;100.00
23303;BME280;11820;48.738;9.092;2022-08-20T00:04:51;96243.66;;;20.98;100.00
23303;BME280;11820;48.738;9.092;2022-08-20T00:07:17;96245.81;;;21.06;100.00
23303;BME280;11820;48.738;9.092;2022-08-20T00:09:43;96249.06;;;20.72;100.00
23303;BME280;11820;48.738;9.092;2022-08-20T00:12:11;96242.47;;;20.69;100.00
23303;BME280;11820;48.738;9.092;2022-08-20T00:14:38;96243.31;;;20.80;100.00
23303;BME280;11820;48.738;9.092;2022-08-20T00:17:04;96239.38;;;20.82;100.00
23303;BME280;11820;48.738;9.092;2022-08-20T00:19:30;96243.78;;;20.67;100.00
23303;BME280;11820;48.738;9.092;2022-08-20T00:21:56;96249.28;;;20.65;100.00
23303;BME280;11820;48.738;9.092;2022-08-20T00:24:22;96246.97;;;20.69;100.00
23303;BME280;11820;48.738;9.092;2022-08-20T00:26:47;96239.31;;;20.67;100.00
23303;BME280;11820;48.738;9.092;2022-08-20T00:29:12;96241.63;;;20.59;100.00
23303;BME280;11820;48.738;9.092;2022-08-20T00:31:38;96235.63;;;20.63;100.00
23303;BME280;11820;48.738;9.092;2022-08-20T00:34:03;96236.91;;;20.61;100.00
23303;BME280;11820;48.738;9.092;2022-08-20T00:36:28;96243.50;;;20.58;100.00
23303;BME280;11820;48.738;9.092;2022-08-20T00:38:54;96243.25;;;20.65;100.00
23303;BME280;11820;48.738;9.092;2022-08-20T00:41:23;96232.78;;;20.75;100.00
23303;BME280;11820;48.738;9.092;2022-08-20T00:46:31;96240.19;;;20.83;100.00
23303;BME280;11820;48.738;9.092;2022-08-20T00:48:57;96241.56;;;20.95;100.00
23303;BME280;11820;48.738;9.092;2022-08-20T00:51:31;96240.25;;;20.98;100.00
23303;BME280;11820;48.738;9.092;2022-08-20T00:54:07;96244.16;;;20.90;100.00
23303;BME280;11820;48.738;9.092;2022-08-20T00:56:35;96244.69;;;20.92;100.00
23303;BME280;11820;48.738;9.092;2022-08-20T00:59:04;96241.28;;;20.92;100.00
23303;BME280;11820;48.738;9.092;2022-08-20T01:01:29;96246.56;;;20.97;100.00
23303;BME280;11820;48.738;9.092;2022-08-20T01:03:58;96253.88;;;20.90;100.00
23303;BME280;11820;48.738;9.092;2022-08-20T01:06:24;96255.75;;;20.99;100.00
23303;BME280;11820;48.738;9.092;2022-08-20T01:08:49;96258.66;;;20.98;100.00
23303;BME280;11820;48.738;9.092;2022-08-20T01:11:15;96260.75;;;20.96;100.00
23303;BME280;11820;48.738;9.092;2022-08-20T01:13:44;96253.38;;;20.93;100.00
23303;BME280;11820;48.738;9.092;2022-08-20T01:16:24;96258.66;;;20.98;100.00
23303;BME280;11820;48.738;9.092;2022-08-20T01:18:51;96251.00;;;20.86;100.00
23303;BME280;11820;48.738;9.092;2022-08-20T01:21:19;96259.97;;;20.95;100.00
23303;BME280;11820;48.738;9.092;2022-08-20T01:24:16;96253.41;;;20.98;100.00
23303;BME280;11820;48.738;9.092;2022-08-20T01:26:46;96265.75;;;21.02;100.00
23303;BME280;11820;48.738;9.092;2022-08-20T01:29:22;96260.50;;;21.02;100.00
23303;BME280;11820;48.738;9.092;2022-08-20T01:31:48;96269.97;;;20.98;100.00
23303;BME280;11820;48.738;9.092;2022-08-20T01:34:17;96272.06;;;20.96;100.00
23303;BME280;11820;48.738;9.092;2022-08-20T01:36:49;96275.72;;;20.90;100.00
23303;BME280;11820;48.738;9.092;2022-08-20T01:39:19;96278.59;;;20.84;100.00
23303;BME280;11820;48.738;9.092;2022-08-20T01:44:29;96279.38;;;20.84;100.00
23303;BME280;11820;48.738;9.092;2022-08-20T01:46:56;96278.34;;;20.85;100.00
23303;BME280;11820;48.738;9.092;2022-08-20T01:49:25;96280.16;;;20.85;100.00
23303;BME280;11820;48.738;9.092;2022-08-20T01:51:53;96275.44;;;20.87;100.00
23303;BME280;11820;48.738;9.092;2022-08-20T01:54:20;96277.50;;;20.80;100.00
23303;BME280;11820;48.738;9.092;2022-08-20T01:59:21;96279.94;;;20.96;100.00
23303;BME280;11820;48.738;9.092;2022-08-20T02:01:47;96276.25;;;20.87;100.00
23303;BME280;11820;48.738;9.092;2022-08-20T02:04:13;96272.28;;;20.85;100.00
23303;BME280;11820;48.738;9.092;2022-08-20T02:06:42;96283.06;;;20.83;100.00
23303;BME280;11820;48.738;9.092;2022-08-20T02:09:09;96278.06;;;20.87;100.00
23303;BME280;11820;48.738;9.092;2022-08-20T02:11:35;96283.31;;;20.87;100.00
23303;BME280;11820;48.738;9.092;2022-08-20T02:14:02;96288.06;;;20.90;100.00
23303;BME280;11820;48.738;9.092;2022-08-20T02:16:31;96284.66;;;20.84;100.00
23303;BME280;11820;48.738;9.092;2022-08-20T02:19:03;96282.50;;;20.81;100.00
23303;BME280;11820;48.738;9.092;2022-08-20T02:21:34;96280.69;;;20.87;100.00
23303;BME280;11820;48.738;9.092;2022-08-20T02:24:01;96281.16;;;20.79;100.00
23303;BME280;11820;48.738;9.092;2022-08-20T02:26:27;96278.25;;;20.75;100.00
23303;BME280;11820;48.738;9.092;2022-08-20T02:28:53;96280.66;;;20.82;100.00
23303;BME280;11820;48.738;9.092;2022-08-20T02:31:21;96292.53;;;20.84;100.00
23303;BME280;11820;48.738;9.092;2022-08-20T02:33:47;96288.06;;;20.90;100.00
23303;BME280;11820;48.738;9.092;2022-08-20T02:36:14;96294.84;;;20.81;100.00
23303;BME280;11820;48.738;9.092;2022-08-20T02:38:42;96293.84;;;20.87;100.00
23303;BME280;11820;48.738;9.092;2022-08-20T02:41:08;96291.75;;;20.89;100.00
23303;BME280;11820;48.738;9.092;2022-08-20T02:43:34;96285.72;;;20.88;100.00
23303;BME280;11820;48.738;9.092;2022-08-20T02:46:01;96285.44;;;20.90;100.00
23303;BME280;11820;48.738;9.092;2022-08-20T02:48:27;96285.47;;;20.95;100.00
23303;BME280;11820;48.738;9.092;2022-08-20T02:50:57;96285.75;;;21.03;100.00
23303;BME280;11820;48.738;9.092;2022-08-20T02:53:30;96289.41;;;20.97;100.00
23303;BME280;11820;48.738;9.092;2022-08-20T02:55:56;96289.94;;;20.89;100.00
23303;BME280;11820;48.738;9.092;2022-08-20T02:58:23;96288.84;;;20.85;100.00
23303;BME280;11820;48.738;9.092;2022-08-20T03:00:49;96280.97;;;20.85;100.00
23303;BME280;11820;48.738;9.092;2022-08-20T03:03:15;96279.63;;;20.83;100.00
23303;BME280;11820;48.738;9.092;2022-08-20T03:05:44;96280.00;;;20.55;100.00
23303;BME280;11820;48.738;9.092;2022-08-20T03:08:12;96273.19;;;20.64;100.00
23303;BME280;11820;48.738;9.092;2022-08-20T03:10:47;96272.56;;;20.83;100.00
23303;BME280;11820;48.738;9.092;2022-08-20T03:13:14;96271.94;;;20.76;100.00
23303;BME280;11820;48.738;9.092;2022-08-20T03:15:42;96272.00;;;20.81;100.00
23303;BME280;11820;48.738;9.092;2022-08-20T03:18:08;96270.88;;;20.72;100.00
23303;BME280;11820;48.738;9.092;2022-08-20T03:20:34;96272.69;;;20.67;100.00
23303;BME280;11820;48.738;9.092;2022-08-20T03:22:59;96268.22;;;20.67;100.00
23303;BME280;11820;48.738;9.092;2022-08-20T03:25:25;96267.31;;;20.42;100.00
23303;BME280;11820;48.738;9.092;2022-08-20T03:27:50;96275.44;;;20.40;100.00
23303;BME280;11820;48.738;9.092;2022-08-20T03:30:16;96273.59;;;20.41;100.00
23303;BME280;11820;48.738;9.092;2022-08-20T03:32:42;96279.16;;;20.49;100.00
23303;BME280;11820;48.738;9.092;2022-08-20T03:35:11;96276.84;;;20.53;100.00
23303;BME280;11820;48.738;9.092;2022-08-20T03:37:38;96276.78;;;20.43;100.00
23303;BME280;11820;48.738;9.092;2022-08-20T03:40:07;96272.81;;;20.40;100.00
23303;BME280;11820;48.738;9.092;2022-08-20T03:42:33;96277.13;;;20.56;100.00
23303;BME280;11820;48.738;9.092;2022-08-20T03:44:58;96276.84;;;20.53;100.00
23303;BME280;11820;48.738;9.092;2022-08-20T03:47:25;96278.69;;;20.57;100.00
23303;BME280;11820;48.738;9.092;2022-08-20T03:49:50;96283.44;;;20.60;100.00
23303;BME280;11820;48.738;9.092;2022-08-20T03:52:15;96285.06;;;20.66;100.00
23303;BME280;11820;48.738;9.092;2022-08-20T03:54:42;96279.81;;;20.71;100.00
23303;BME280;11820;48.738;9.092;2022-08-20T03:57:14;96285.75;;;20.52;100.00
23303;BME280;11820;48.738;9.092;2022-08-20T03:59:40;96281.09;;;20.64;100.00
23303;BME280;11820;48.738;9.092;2022-08-20T04:02:05;96281.09;;;20.64;100.00
23303;BME280;11820;48.738;9.092;2022-08-20T04:04:31;96281.63;;;20.24;100.00
23303;BME280;11820;48.738;9.092;2022-08-20T04:06:57;96283.66;;;20.54;100.00
23303;BME280;11820;48.738;9.092;2022-08-20T04:09:22;96278.41;;;20.54;100.00
23303;BME280;11820;48.738;9.092;2022-08-20T04:11:48;96282.41;;;20.61;100.00
23303;BME280;11820;48.738;9.092;2022-08-20T04:14:14;96277.59;;;20.53;100.00
23303;BME280;11820;48.738;9.092;2022-08-20T04:16:39;96286.53;;;20.52;100.00
23303;BME280;11820;48.738;9.092;2022-08-20T04:19:05;96283.66;;;20.54;100.00
23303;BME280;11820;48.738;9.092;2022-08-20T04:21:34;96287.06;;;20.54;100.00
23303;BME280;11820;48.738;9.092;2022-08-20T04:24:00;96284.50;;;20.59;100.00
23303;BME280;11820;48.738;9.092;2022-08-20T04:26:26;96284.94;;;20.46;100.00
23303;BME280;11820;48.738;9.092;2022-08-20T04:28:52;96287.25;;;20.38;100.00
23303;BME280;11820;48.738;9.092;2022-08-20T04:31:19;96296.75;;;20.44;100.00
23303;BME280;11820;48.738;9.092;2022-08-20T04:33:45;96308.09;;;20.54;100.00
23303;BME280;11820;48.738;9.092;2022-08-20T04:36:10;96309.09;;;20.43;100.00
23303;BME280;11820;48.738;9.092;2022-08-20T04:38:36;96307.81;;;20.46;100.00
23303;BME280;11820;48.738;9.092;2022-08-20T04:41:01;96306.25;;;20.50;100.00
23303;BME280;11820;48.738;9.092;2022-08-20T04:43:31;96309.94;;;20.54;100.00
23303;BME280;11820;48.738;9.092;2022-08-20T04:45:59;96305.75;;;20.53;100.00
23303;BME280;11820;48.738;9.092;2022-08-20T04:48:27;96306.16;;;20.35;100.00
23303;BME280;11820;48.738;9.092;2022-08-20T04:50:54;96321.22;;;20.49;100.00
23303;BME280;11820;48.738;9.092;2022-08-20T04:53:22;96318.59;;;20.49;100.00
23303;BME280;11820;48.738;9.092;2022-08-20T04:55:49;96323.28;;;20.42;100.00
23303;BME280;11820;48.738;9.092;2022-08-20T04:58:21;96310.69;;;20.49;100.00
23303;BME280;11820;48.738;9.092;2022-08-20T05:00:48;96317.84;;;20.59;100.00
23303;BME280;11820;48.738;9.092;2022-08-20T05:03:15;96318.16;;;20.62;100.00
23303;BME280;11820;48.738;9.092;2022-08-20T05:05:41;96323.38;;;20.57;100.00
23303;BME280;11820;48.738;9.092;2022-08-20T05:08:07;96319.94;;;20.57;100.00
23303;BME280;11820;48.738;9.092;2022-08-20T05:10:32;96325.22;;;20.57;100.00
23303;BME280;11820;48.738;9.092;2022-08-20T05:13:00;96326.44;;;20.44;100.00
23303;BME280;11820;48.738;9.092;2022-08-20T05:15:26;96323.59;;;20.51;100.00
23303;BME280;11820;48.738;9.092;2022-08-20T05:17:57;96327.53;;;20.53;100.00
23303;BME280;11820;48.738;9.092;2022-08-20T05:20:24;96325.00;;;20.68;100.00
23303;BME280;11820;48.738;9.092;2022-08-20T05:22:57;96326.06;;;20.67;100.00
23303;BME280;11820;48.738;9.092;2022-08-20T05:25:23;96328.94;;;20.66;100.00
23303;BME280;11820;48.738;9.092;2022-08-20T05:27:48;96326.63;;;20.74;100.00
23303;BME280;11820;48.738;9.092;2022-08-20T05:30:14;96332.38;;;20.71;100.00
23303;BME280;11820;48.738;9.092;2022-08-20T05:32:39;96338.16;;;20.68;100.00
23303;BME280;11820;48.738;9.092;2022-08-20T05:35:07;96332.91;;;20.68;100.00
23303;BME280;11820;48.738;9.092;2022-08-20T05:37:38;96336.00;;;20.55;100.00
23303;BME280;11820;48.738;9.092;2022-08-20T05:40:12;96333.28;;;20.45;100.00
23303;BME280;11820;48.738;9.092;2022-08-20T05:42:38;96334.13;;;20.51;100.00
23303;BME280;11820;48.738;9.092;2022-08-20T05:45:05;96339.56;;;20.44;100.00
23303;BME280;11820;48.738;9.092;2022-08-20T05:47:30;96335.41;;;20.53;100.00
23303;BME280;11820;48.738;9.092;2022-08-20T05:49:56;96344.88;;;20.54;100.00
23303;BME280;11820;48.738;9.092;2022-08-20T05:52:21;96346.75;;;20.59;100.00
23303;BME280;11820;48.738;9.092;2022-08-20T05:54:46;96348.31;;;20.91;100.00
23303;BME280;11820;48.738;9.092;2022-08-20T05:57:16;96345.38;;;20.88;100.00
23303;BME280;11820;48.738;9.092;2022-08-20T05:59:43;96342.50;;;20.89;100.00
23303;BME280;11820;48.738;9.092;2022-08-20T06:02:08;96352.56;;;21.02;100.00
23303;BME280;11820;48.738;9.092;2022-08-20T06:04:53;96342.63;;;21.09;100.00
23303;BME280;11820;48.738;9.092;2022-08-20T06:07:19;96342.31;;;21.01;100.00
23303;BME280;11820;48.738;9.092;2022-08-20T06:09:44;96335.19;;;21.01;100.00
23303;BME280;11820;48.738;9.092;2022-08-20T06:12:10;96339.41;;;21.02;100.00
23303;BME280;11820;48.738;9.092;2022-08-20T06:14:36;96333.06;;;20.98;100.00
23303;BME280;11820;48.738;9.092;2022-08-20T06:17:06;96339.16;;;21.04;100.00
23303;BME280;11820;48.738;9.092;2022-08-20T06:19:33;96343.09;;;21.01;100.00
23303;BME280;11820;48.738;9.092;2022-08-20T06:21:59;96348.84;;;20.98;100.00
23303;BME280;11820;48.738;9.092;2022-08-20T06:24:25;96351.25;;;21.05;100.00
23303;BME280;11820;48.738;9.092;2022-08-20T06:26:58;96352.03;;;21.05;100.00
23303;BME280;11820;48.738;9.092;2022-08-20T06:29:25;96356.09;;;21.23;100.00
23303;BME280;11820;48.738;9.092;2022-08-20T06:31:50;96358.44;;;21.24;100.00
23303;BME280;11820;48.738;9.092;2022-08-20T06:34:16;96356.31;;;21.16;100.00
23303;BME280;11820;48.738;9.092;2022-08-20T06:36:42;96360.03;;;21.25;100.00
23303;BME280;11820;48.738;9.092;2022-08-20T06:39:12;96360.75;;;21.06;100.00
23303;BME280;11820;48.738;9.092;2022-08-20T06:41:37;96359.69;;;21.07;100.00
23303;BME280;11820;48.738;9.092;2022-08-20T06:44:04;96358.19;;;21.21;100.00
23303;BME280;11820;48.738;9.092;2022-08-20T06:46:34;96361.06;;;21.24;100.00
23303;BME280;11820;48.738;9.092;2022-08-20T06:49:01;96361.59;;;21.26;100.00
23303;BME280;11820;48.738;9.092;2022-08-20T06:51:28;96358.22;;;21.31;100.00
23303;BME280;11820;48.738;9.092;2022-08-20T06:53:54;96367.47;;;21.38;100.00
23303;BME280;11820;48.738;9.092;2022-08-20T06:56:19;96364.25;;;21.26;100.00
23303;BME280;11820;48.738;9.092;2022-08-20T06:58:45;96367.69;;;21.27;100.00
23303;BME280;11820;48.738;9.092;2022-08-20T07:01:11;96365.38;;;21.45;100.00
23303;BME280;11820;48.738;9.092;2022-08-20T07:03:38;96354.31;;;21.38;100.00
23303;BME280;11820;48.738;9.092;2022-08-20T07:06:05;96356.13;;;21.33;100.00
23303;BME280;11820;48.738;9.092;2022-08-20T07:08:30;96362.13;;;21.28;100.00
23303;BME280;11820;48.738;9.092;2022-08-20T07:10:55;96367.44;;;21.33;100.00
23303;BME280;11820;48.738;9.092;2022-08-20T07:13:21;96364.78;;;21.28;100.00
23303;BME280;11820;48.738;9.092;2022-08-20T07:15:46;96362.72;;;21.35;100.00
23303;BME280;11820;48.738;9.092;2022-08-20T07:18:14;96359.81;;;21.37;100.00
23303;BME280;11820;48.738;9.092;2022-08-20T07:20:40;96367.44;;;21.33;100.00
23303;BME280;11820;48.738;9.092;2022-08-20T07:23:06;96370.09;;;21.38;100.00
23303;BME280;11820;48.738;9.092;2022-08-20T07:25:32;96369.34;;;21.47;100.00
23303;BME280;11820;48.738;9.092;2022-08-20T07:28:07;96374.31;;;21.44;100.00
23303;BME280;11820;48.738;9.092;2022-08-20T07:30:35;96371.50;;;21.65;100.00
23303;BME280;11820;48.738;9.092;2022-08-20T07:33:19;96361.81;;;21.96;100.00
23303;BME280;11820;48.738;9.092;2022-08-20T07:35:44;96362.59;;;21.91;100.00
23303;BME280;11820;48.738;9.092;2022-08-20T07:38:15;96361.31;;;21.89;100.00
23303;BME280;11820;48.738;9.092;2022-08-20T07:40:43;96371.28;;;21.77;100.00
23303;BME280;11820;48.738;9.092;2022-08-20T07:43:09;96373.41;;;21.90;100.00
23303;BME280;11820;48.738;9.092;2022-08-20T07:45:35;96376.06;;;21.85;100.00
23303;BME280;11820;48.738;9.092;2022-08-20T07:48:10;96387.06;;;21.72;100.00
23303;BME280;11820;48.738;9.092;2022-08-20T07:50:36;96385.66;;;21.49;100.00
23303;BME280;11820;48.738;9.092;2022-08-20T07:53:02;96394.34;;;21.55;100.00
23303;BME280;11820;48.738;9.092;2022-08-20T07:55:27;96386.59;;;22.00;100.00
23303;BME280;11820;48.738;9.092;2022-08-20T07:57:54;96384.75;;;22.10;100.00
23303;BME280;11820;48.738;9.092;2022-08-20T08:00:22;96380.28;;;22.26;100.00
23303;BME280;11820;48.738;9.092;2022-08-20T08:02:48;96379.25;;;22.27;100.00
23303;BME280;11820;48.738;9.092;2022-08-20T08:05:14;96375.59;;;22.38;100.00
23303;BME280;11820;48.738;9.092;2022-08-20T08:07:40;96380.28;;;22.31;100.00
23303;BME280;11820;48.738;9.092;2022-08-20T08:10:08;96381.63;;;22.28;100.00
23303;BME280;11820;48.738;9.092;2022-08-20T08:12:37;96387.41;;;22.05;100.00
23303;BME280;11820;48.738;9.092;2022-08-20T08:15:06;96380.03;;;22.07;100.00
23303;BME280;11820;48.738;9.092;2022-08-20T08:17:33;96378.19;;;22.18;100.00
23303;BME280;11820;48.738;9.092;2022-08-20T08:19:59;96379.22;;;22.07;100.00
23303;BME280;11820;48.738;9.092;2022-08-20T08:22:25;96381.88;;;22.22;100.00
23303;BME280;11820;48.738;9.092;2022-08-20T08:24:50;96374.50;;;22.69;100.00
23303;BME280;11820;48.738;9.092;2022-08-20T08:27:16;96374.19;;;22.95;100.00
23303;BME280;11820;48.738;9.092;2022-08-20T08:29:45;96373.72;;;22.78;100.00
23303;BME280;11820;48.738;9.092;2022-08-20T08:32:13;96370.75;;;22.95;100.00
23303;BME280;11820;48.738;9.092;2022-08-20T08:34:39;96368.38;;;23.03;100.00
23303;BME280;11820;48.738;9.092;2022-08-20T08:37:05;96370.75;;;23.00;100.00
23303;BME280;11820;48.738;9.092;2022-08-20T08:39:31;96370.19;;;23.08;100.00
23303;BME280;11820;48.738;9.092;2022-08-20T08:41:59;96371.00;;;23.13;100.00
23303;BME280;11820;48.738;9.092;2022-08-20T08:44:33;96368.34;;;23.23;100.00
23303;BME280;11820;48.738;9.092;2022-08-20T08:47:02;96373.28;;;23.34;100.00
23303;BME280;11820;48.738;9.092;2022-08-20T08:49:34;96374.06;;;23.40;100.00
23303;BME280;11820;48.738;9.092;2022-08-20T08:52:03;96378.50;;;23.49;100.00
23303;BME280;11820;48.738;9.092;2022-08-20T08:54:33;96378.78;;;23.53;100.00
23303;BME280;11820;48.738;9.092;2022-08-20T08:57:00;96370.00;;;23.62;100.00
23303;BME280;11820;48.738;9.092;2022-08-20T08:59:27;96378.78;;;23.53;100.00
23303;BME280;11820;48.738;9.092;2022-08-20T09:01:56;96373.50;;;23.53;100.00
23303;BME280;11820;48.738;9.092;2022-08-20T09:04:32;96375.19;;;23.24;100.00
23303;BME280;11820;48.738;9.092;2022-08-20T09:07:00;96370.19;;;23.08;100.00
23303;BME280;11820;48.738;9.092;2022-08-20T09:09:30;96360.94;;;23.25;100.00
23303;BME280;11820;48.738;9.092;2022-08-20T09:12:22;96363.28;;;23.36;100.00
23303;BME280;11820;48.738;9.092;2022-08-20T09:14:48;96376.19;;;23.38;100.00
23303;BME280;11820;48.738;9.092;2022-08-20T09:17:19;96367.69;;;23.51;100.00
23303;BME280;11820;48.738;9.092;2022-08-20T09:19:45;96373.50;;;23.43;100.00
23303;BME280;11820;48.738;9.092;2022-08-20T09:22:13;96371.50;;;23.25;100.00
23303;BME280;11820;48.738;9.092;2022-08-20T09:24:40;96374.91;;;23.25;100.00
23303;BME280;11820;48.738;9.092;2022-08-20T09:27:06;96372.31;;;23.06;100.00
23303;BME280;11820;48.738;9.092;2022-08-20T09:29:32;96375.81;;;23.59;100.00
23303;BME280;11820;48.738;9.092;2022-08-20T09:32:12;96367.31;;;23.72;100.00
23303;BME280;11820;48.738;9.092;2022-08-20T09:34:41;96376.00;;;23.78;100.00
23303;BME280;11820;48.738;9.092;2022-08-20T09:37:07;96365.91;;;23.90;100.00
23303;BME280;11820;48.738;9.092;2022-08-20T09:39:33;96367.69;;;23.99;100.00
23303;BME280;11820;48.738;9.092;2022-08-20T09:42:13;96362.31;;;24.14;100.00
23303;BME280;11820;48.738;9.092;2022-08-20T09:44:39;96362.03;;;24.16;100.00
23303;BME280;11820;48.738;9.092;2022-08-20T09:47:05;96353.84;;;24.17;100.00
23303;BME280;11820;48.738;9.092;2022-08-20T09:49:31;96356.34;;;24.32;100.00
23303;BME280;11820;48.738;9.092;2022-08-20T09:51:59;96357.28;;;24.51;100.00
23303;BME280;11820;48.738;9.092;2022-08-20T09:54:25;96348.69;;;24.64;100.00
23303;BME280;11820;48.738;9.092;2022-08-20T09:56:57;96348.91;;;24.34;100.00
23303;BME280;11820;48.738;9.092;2022-08-20T09:59:24;96356.03;;;24.72;100.00
23303;BME280;11820;48.738;9.092;2022-08-20T10:01:50;96353.88;;;25.02;100.00
23303;BME280;11820;48.738;9.092;2022-08-20T10:04:16;96355.72;;;25.02;98.45
23303;BME280;11820;48.738;9.092;2022-08-20T10:06:41;96359.53;;;25.14;96.10
23303;BME280;11820;48.738;9.092;2022-08-20T10:09:07;96364.41;;;24.79;94.84
23303;BME280;11820;48.738;9.092;2022-08-20T10:11:32;96362.59;;;24.46;98.35
23303;BME280;11820;48.738;9.092;2022-08-20T10:13:58;96367.34;;;24.44;97.27
23303;BME280;11820;48.738;9.092;2022-08-20T10:16:23;96374.63;;;23.90;100.00
23303;BME280;11820;48.738;9.092;2022-08-20T10:18:49;96364.75;;;24.39;100.00
23303;BME280;11820;48.738;9.092;2022-08-20T10:21:15;96360.00;;;24.36;100.00
23303;BME280;11820;48.738;9.092;2022-08-20T10:23:40;96365.72;;;24.48;100.00
23303;BME280;11820;48.738;9.092;2022-08-20T10:26:07;96377.97;;;24.73;100.00
23303;BME280;11820;48.738;9.092;2022-08-20T10:28:33;96375.66;;;24.66;100.00
23303;BME280;11820;48.738;9.092;2022-08-20T10:30:58;96380.19;;;24.27;100.00
23303;BME280;11820;48.738;9.092;2022-08-20T10:33:24;96386.38;;;23.64;100.00
23303;BME280;11820;48.738;9.092;2022-08-20T10:35:49;96384.25;;;23.66;100.00
23303;BME280;11820;48.738;9.092;2022-08-20T10:38:14;96380.19;;;23.35;100.00
23303;BME280;11820;48.738;9.092;2022-08-20T10:40:40;96382.31;;;23.23;100.00
23303;BME280;11820;48.738;9.092;2022-08-20T10:43:05;96384.47;;;23.02;100.00
23303;BME280;11820;48.738;9.092;2022-08-20T10:45:30;96383.91;;;23.24;100.00
23303;BME280;11820;48.738;9.092;2022-08-20T10:48:00;96380.59;;;23.52;100.00
23303;BME280;11820;48.738;9.092;2022-08-20T10:50:26;96377.69;;;23.59;100.00
23303;BME280;11820;48.738;9.092;2022-08-20T10:52:51;96375.16;;;23.92;100.00
23303;BME280;11820;48.738;9.092;2022-08-20T10:55:16;96364.56;;;24.31;100.00
23303;BME280;11820;48.738;9.092;2022-08-20T10:57:42;96367.56;;;24.19;100.00
23303;BME280;11820;48.738;9.092;2022-08-20T11:00:10;96376.59;;;24.08;100.00
23303;BME280;11820;48.738;9.092;2022-08-20T11:02:35;96376.50;;;24.62;100.00
23303;BME280;11820;48.738;9.092;2022-08-20T11:05:01;96377.63;;;23.69;100.00
23303;BME280;11820;48.738;9.092;2022-08-20T11:07:29;96373.06;;;24.23;100.00
23303;BME280;11820;48.738;9.092;2022-08-20T11:09:55;96371.59;;;23.58;100.00
23303;BME280;11820;48.738;9.092;2022-08-20T11:12:21;96380.16;;;23.30;100.00
23303;BME280;11820;48.738;9.092;2022-08-20T11:14:47;96391.59;;;23.06;100.00
23303;BME280;11820;48.738;9.092;2022-08-20T11:17:28;96401.94;;;22.68;100.00
23303;BME280;11820;48.738;9.092;2022-08-20T11:19:55;96401.66;;;22.64;100.00
23303;BME280;11820;48.738;9.092;2022-08-20T11:22:21;96402.47;;;22.45;100.00
23303;BME280;11820;48.738;9.092;2022-08-20T11:24:46;96404.78;;;22.01;100.00
23303;BME280;11820;48.738;9.092;2022-08-20T11:27:16;96400.88;;;22.49;100.00
23303;BME280;11820;48.738;9.092;2022-08-20T11:29:44;96396.13;;;22.71;100.00
23303;BME280;11820;48.738;9.092;2022-08-20T11:32:09;96397.69;;;22.82;100.00
23303;BME280;11820;48.738;9.092;2022-08-20T11:34:34;96389.78;;;22.77;100.00
23303;BME280;11820;48.738;9.092;2022-08-20T11:37:00;96393.47;;;22.76;100.00
23303;BME280;11820;48.738;9.092;2022-08-20T11:39:25;96397.19;;;22.75;100.00
23303;BME280;11820;48.738;9.092;2022-08-20T11:41:51;96391.38;;;22.53;100.00
23303;BME280;11820;48.738;9.092;2022-08-20T11:44:16;96392.72;;;22.55;100.00
23303;BME280;11820;48.738;9.092;2022-08-20T11:46:42;96388.50;;;22.49;100.00
23303;BME280;11820;48.738;9.092;2022-08-20T11:49:07;96395.09;;;22.47;100.00
23303;BME280;11820;48.738;9.092;2022-08-20T11:51:33;96392.44;;;22.57;100.00
23303;BME280;11820;48.738;9.092;2022-08-20T11:53:58;96395.88;;;22.62;100.00
23303;BME280;11820;48.738;9.092;2022-08-20T11:56:24;96392.97;;;22.69;100.00
23303;BME280;11820;48.738;9.092;2022-08-20T11:58:49;96399.53;;;22.86;100.00
23303;BME280;11820;48.738;9.092;2022-08-20T12:01:15;96403.25;;;22.70;100.00
23303;BME280;11820;48.738;9.092;2022-08-20T12:03:40;96401.41;;;22.71;100.00
23303;BME280;11820;48.738;9.092;2022-08-20T12:06:05;96398.22;;;22.84;100.00
23303;BME280;11820;48.738;9.092;2022-08-20T12:08:31;96398.72;;;22.96;100.00
23303;BME280;11820;48.738;9.092;2022-08-20T12:10:59;96396.59;;;23.17;100.00
23303;BME280;11820;48.738;9.092;2022-08-20T12:13:26;96400.84;;;23.14;100.00
23303;BME280;11820;48.738;9.092;2022-08-20T12:15:52;96400.28;;;23.02;100.00
23303;BME280;11820;48.738;9.092;2022-08-20T12:18:18;96403.97;;;23.20;100.00
23303;BME280;11820;48.738;9.092;2022-08-20T12:20:43;96392.31;;;23.31;100.00
23303;BME280;11820;48.738;9.092;2022-08-20T12:23:09;96397.44;;;23.71;100.00
23303;BME280;11820;48.738;9.092;2022-08-20T12:25:34;96393.47;;;23.74;100.00
23303;BME280;11820;48.738;9.092;2022-08-20T12:27:59;96390.97;;;23.97;100.00
23303;BME280;11820;48.738;9.092;2022-08-20T12:30:25;96390.28;;;24.20;100.00
23303;BME280;11820;48.738;9.092;2022-08-20T12:32:50;96388.56;;;24.01;100.00
23303;BME280;11820;48.738;9.092;2022-08-20T12:35:17;96379.72;;;24.20;100.00
23303;BME280;11820;48.738;9.092;2022-08-20T12:37:44;96390.56;;;24.19;100.00
23303;BME280;11820;48.738;9.092;2022-08-20T12:40:21;96385.81;;;24.16;100.00
23303;BME280;11820;48.738;9.092;2022-08-20T12:42:47;96378.28;;;23.99;100.00
23303;BME280;11820;48.738;9.092;2022-08-20T12:45:13;96374.69;;;23.75;100.00
23303;BME280;11820;48.738;9.092;2022-08-20T12:47:42;96377.09;;;23.67;100.00
23303;BME280;11820;48.738;9.092;2022-08-20T12:50:09;96368.28;;;23.33;100.00
23303;BME280;11820;48.738;9.092;2022-08-20T12:52:35;96380.47;;;23.24;100.00
23303;BME280;11820;48.738;9.092;2022-08-20T12:55:02;96375.41;;;23.32;100.00
23303;BME280;11820;48.738;9.092;2022-08-20T13:00:07;96384.50;;;23.65;100.00